Time;durP1;ratioP1;P1;durP2;ratioP2;P2;SDS_P1;SDS_P2;PMS_P1;PMS_P2;Temp;Humidity;BMP_temperature;BMP_pressure;BME280_temperature;BME280_humidity;BME280_pressure;Samples;Min_cycle;Max_cycle;Signal;HPM_P1;HPM_P2
2022/01/31 00:00:47;;;;;;;;;;;;;;;8.27;79.42;100892.31;6246937;23;19990;-80
2022/01/31 00:03:12;;;;;;;;;;;;;;;8.33;79.45;100896.00;6248212;23;19905;-80
2022/01/31 00:05:37;;;;;;;;;;;;;;;8.47;78.63;100885.66;6224444;23;19910;-77
2022/01/31 00:08:03;;;;;;;;;;;;;;;8.55;78.18;100888.84;6246839;23;19998;-76
2022/01/31 00:10:30;;;;;;;;;;;;;;;8.68;77.13;100892.38;6217803;23;19909;-78
2022/01/31 00:13:16;;;;;;;;;;;;;;;8.79;76.94;100915.22;6216752;23;19965;-76
2022/01/31 00:15:57;;;;;;;;;;;;;;;;;;;;;
2022/01/31 00:18:25;;;;;;;;;;;;;;;8.90;75.72;100917.91;6244934;23;19986;-75
2022/01/31 00:20:51;;;;;;;;;;;;;;;8.94;75.49;100922.91;6217967;23;20273;-75
2022/01/31 00:23:16;;;;;;;;;;;;;;;8.94;75.04;100928.34;6214101;22;19911;-72
2022/01/31 00:25:41;;;;;;;;;;;;;;;8.93;74.60;100922.03;6243491;23;20002;-72
2022/01/31 00:28:10;;;;;;;;;;;;;;;8.88;74.58;100950.06;6240689;23;19915;-73
2022/01/31 00:30:35;;;;;;;;;;;;;;;8.82;74.03;100948.31;6215654;23;19992;-74
2022/01/31 00:33:01;;;;;;;;;;;;;;;8.79;73.93;100942.50;6215701;23;19907;-74
2022/01/31 00:35:26;;;;;;;;;;;;;;;8.66;73.44;100943.59;6242109;23;19982;-72
2022/01/31 00:37:52;;;;;;;;;;;;;;;8.59;73.38;100951.91;6243134;23;19913;-73
2022/01/31 00:40:17;;;;;;;;;;;;;;;8.47;73.12;100968.28;6215574;23;19911;-72
2022/01/31 00:42:42;;;;;;;;;;;;;;;8.40;72.89;100962.09;6189153;23;19931;-73
2022/01/31 00:45:20;;;;;;;;;;;;;;;8.30;72.20;100956.41;6243220;23;19904;-72
2022/01/31 00:47:49;;;;;;;;;;;;;;;8.20;71.92;100979.63;6244511;23;19903;-74
2022/01/31 00:50:19;;;;;;;;;;;;;;;8.09;72.07;100966.84;6218713;23;20025;-74
2022/01/31 00:52:45;;;;;;;;;;;;;;;7.95;71.04;100959.97;6218781;23;20301;-74
2022/01/31 00:55:13;;;;;;;;;;;;;;;7.83;71.31;100960.78;6218173;23;19950;-74
2022/01/31 00:57:40;;;;;;;;;;;;;;;7.72;70.66;100949.88;6218617;23;19911;-74
2022/01/31 01:00:08;;;;;;;;;;;;;;;7.66;69.16;100965.22;6241241;23;19927;-75
2022/01/31 01:02:36;;;;;;;;;;;;;;;7.61;68.07;100971.38;6218955;23;19911;-76
2022/01/31 01:05:02;;;;;;;;;;;;;;;7.56;66.66;100952.19;6227820;23;19911;-75
2022/01/31 01:07:27;;;;;;;;;;;;;;;7.51;66.54;100958.34;6263420;23;19922;-74
2022/01/31 01:09:53;;;;;;;;;;;;;;;7.45;65.79;100962.00;6221947;23;19946;-73
2022/01/31 01:12:19;;;;;;;;;;;;;;;7.35;66.16;100961.72;6242023;23;19908;-74
2022/01/31 01:14:45;;;;;;;;;;;;;;;7.28;64.99;100961.81;6243627;23;20030;-75
2022/01/31 01:17:10;;;;;;;;;;;;;;;7.23;64.45;100952.66;6244428;23;20259;-74
2022/01/31 01:19:36;;;;;;;;;;;;;;;7.23;65.36;100958.09;6242552;23;19903;-74
2022/01/31 01:22:02;;;;;;;;;;;;;;;7.15;64.84;100941.09;6241298;23;19990;-74
2022/01/31 01:24:27;;;;;;;;;;;;;;;7.10;64.55;100927.31;6215673;23;19915;-75
2022/01/31 01:26:53;;;;;;;;;;;;;;;7.10;64.66;100938.22;6215480;23;19907;-74
2022/01/31 01:29:19;;;;;;;;;;;;;;;7.14;65.48;100944.84;6212137;23;20279;-74
2022/01/31 01:31:46;;;;;;;;;;;;;;;7.10;64.21;100943.66;6241485;23;19996;-74
2022/01/31 01:34:11;;;;;;;;;;;;;;;7.06;64.31;100942.44;6243020;23;19907;-74
2022/01/31 01:36:38;;;;;;;;;;;;;;;7.06;64.51;100941.63;6215313;23;20231;-74
2022/01/31 01:39:06;;;;;;;;;;;;;;;7.06;65.14;100928.03;6216590;23;20346;-74
2022/01/31 01:41:36;;;;;;;;;;;;;;;7.04;65.25;100939.13;6241875;23;19958;-74
2022/01/31 01:44:04;;;;;;;;;;;;;;;7.06;65.69;100947.06;6216527;23;20014;-74
2022/01/31 01:46:29;;;;;;;;;;;;;;;7.03;66.73;100947.53;6241155;23;19904;-73
2022/01/31 01:48:54;;;;;;;;;;;;;;;7.10;66.37;100953.72;6243312;23;19911;-71
2022/01/31 01:51:20;;;;;;;;;;;;;;;7.10;66.37;100938.22;6215350;23;20267;-70
2022/01/31 01:53:45;;;;;;;;;;;;;;;7.14;67.04;100935.84;6216377;23;19958;-71
2022/01/31 01:56:10;;;;;;;;;;;;;;;7.09;66.44;100930.28;6243031;23;19926;-70
2022/01/31 01:58:41;;;;;;;;;;;;;;;7.08;67.09;100940.34;6240733;23;20301;-71
2022/01/31 02:01:07;;;;;;;;;;;;;;;7.04;66.20;100938.28;6215348;23;20434;-70
2022/01/31 02:03:34;;;;;;;;;;;;;;;6.96;66.96;100947.59;6188070;23;19912;-71
2022/01/31 02:06:00;;;;;;;;;;;;;;;6.97;66.83;100954.72;6240768;23;19911;-70
2022/01/31 02:08:27;;;;;;;;;;;;;;;6.94;66.46;100956.00;6211891;23;19956;-71
2022/01/31 02:10:53;;;;;;;;;;;;;;;6.90;66.16;100956.69;6240178;23;19910;-71
2022/01/31 02:13:19;;;;;;;;;;;;;;;6.86;67.09;100950.03;6214970;23;19919;-72
2022/01/31 02:15:46;;;;;;;;;;;;;;;6.88;67.13;100943.31;6241107;23;19907;-71
2022/01/31 02:18:12;;;;;;;;;;;;;;;6.85;66.76;100940.22;6212907;23;19978;-71
2022/01/31 02:20:38;;;;;;;;;;;;;;;6.88;66.58;100940.59;6189491;23;19981;-70
2022/01/31 02:23:05;;;;;;;;;;;;;;;6.87;66.52;100938.09;6214578;23;20536;-70
2022/01/31 02:25:30;;;;;;;;;;;;;;;6.87;65.92;100938.09;6213882;23;19910;-71
2022/01/31 02:27:56;;;;;;;;;;;;;;;6.84;65.42;100927.69;6239678;23;19907;-71
2022/01/31 02:30:21;;;;;;;;;;;;;;;6.82;66.09;100928.75;6215365;23;19994;-72
2022/01/31 02:32:46;;;;;;;;;;;;;;;6.84;65.12;100927.69;6189505;23;19912;-73
2022/01/31 02:35:12;;;;;;;;;;;;;;;6.75;65.25;100929.91;6212556;23;19907;-73
2022/01/31 02:37:37;;;;;;;;;;;;;;;6.73;65.84;100921.97;6214212;23;19903;-72
2022/01/31 02:40:03;;;;;;;;;;;;;;;6.71;65.60;100924.06;6244569;23;19912;-72
2022/01/31 02:42:28;;;;;;;;;;;;;;;6.68;66.04;100929.97;6242914;23;19903;-74
2022/01/31 02:44:54;;;;;;;;;;;;;;;6.63;65.85;100935.28;6259465;23;19911;-73
2022/01/31 02:47:27;;;;;;;;;;;;;;;6.59;66.08;100939.50;6242425;23;19902;-73
2022/01/31 02:50:15;;;;;;;;;;;;;;;6.53;65.64;100943.13;6264675;23;20310;-73
2022/01/31 02:52:46;;;;;;;;;;;;;;;6.53;65.72;100938.50;6246262;22;19919;-74
2022/01/31 02:55:12;;;;;;;;;;;;;;;6.54;65.67;100934.75;6218087;23;19911;-74
2022/01/31 02:57:40;;;;;;;;;;;;;;;6.53;65.47;100937.69;6247256;23;19966;-75
2022/01/31 03:00:05;;;;;;;;;;;;;;;6.50;66.53;100944.41;6217740;23;19914;-74
2022/01/31 03:02:31;;;;;;;;;;;;;;;6.50;66.41;100943.53;6243444;23;19982;-74
2022/01/31 03:04:58;;;;;;;;;;;;;;;6.54;65.59;100944.75;6246265;23;19907;-74
2022/01/31 03:07:24;;;;;;;;;;;;;;;6.49;65.95;100941.91;6245300;23;19903;-75
2022/01/31 03:09:49;;;;;;;;;;;;;;;6.45;65.95;100942.38;6217841;23;19904;-74
2022/01/31 03:12:14;;;;;;;;;;;;;;;6.45;65.99;100931.50;6191691;23;19911;-74
2022/01/31 03:14:42;;;;;;;;;;;;;;;6.40;65.88;100936.75;6215945;23;20319;-74
2022/01/31 03:17:13;;;;;;;;;;;;;;;6.40;65.13;100934.03;6246182;23;19907;-74
2022/01/31 03:19:40;;;;;;;;;;;;;;;6.38;65.15;100938.03;6245058;23;19904;-74
2022/01/31 03:22:09;;;;;;;;;;;;;;;6.37;65.65;100939.94;6217471;23;19908;-73
2022/01/31 03:24:37;;;;;;;;;;;;;;;6.35;66.06;100942.06;6218137;23;19903;-74
2022/01/31 03:27:05;;;;;;;;;;;;;;;6.27;66.52;100945.06;6218304;23;19985;-74
2022/01/31 03:29:30;;;;;;;;;;;;;;;6.30;65.51;100941.88;6245824;23;19907;-73
2022/01/31 03:31:58;;;;;;;;;;;;;;;6.32;66.00;100926.19;6192698;23;19914;-76
2022/01/31 03:34:25;;;;;;;;;;;;;;;6.31;65.30;100929.97;6217376;23;19950;-72
2022/01/31 03:36:53;;;;;;;;;;;;;;;6.36;65.03;100927.41;6244768;23;19978;-73
2022/01/31 03:39:26;;;;;;;;;;;;;;;6.33;64.68;100925.13;6216452;23;19911;-72
2022/01/31 03:41:51;;;;;;;;;;;;;;;6.38;65.44;100928.03;6262555;23;19898;-73
2022/01/31 03:44:16;;;;;;;;;;;;;;;6.40;64.78;100923.19;6266444;23;19903;-73
2022/01/31 03:46:42;;;;;;;;;;;;;;;6.44;64.55;100918.97;6266719;23;19930;-74
2022/01/31 03:49:07;;;;;;;;;;;;;;;6.50;64.19;100917.22;6214737;23;19919;-73
2022/01/31 03:51:32;;;;;;;;;;;;;;;6.45;63.81;100908.91;6224640;23;19990;-73
2022/01/31 03:53:58;;;;;;;;;;;;;;;6.42;63.72;100914.81;6247941;22;19915;-73
2022/01/31 03:56:23;;;;;;;;;;;;;;;6.51;63.73;100923.47;6243763;23;19957;-73
2022/01/31 03:58:48;;;;;;;;;;;;;;;6.52;63.61;100915.09;6243427;23;19939;-73
2022/01/31 04:01:13;;;;;;;;;;;;;;;6.51;63.18;100899.03;6243596;23;20319;-72
2022/01/31 04:03:39;;;;;;;;;;;;;;;6.46;64.01;100895.09;6240579;23;19961;-71
2022/01/31 04:06:04;;;;;;;;;;;;;;;6.41;63.64;100892.25;6217082;23;19919;-73
2022/01/31 04:08:30;;;;;;;;;;;;;;;6.51;62.50;100894.41;6215066;23;20349;-72
2022/01/31 04:10:55;;;;;;;;;;;;;;;6.52;62.18;100906.13;6243803;23;19949;-74
2022/01/31 04:13:21;;;;;;;;;;;;;;;6.52;62.94;100908.84;6243005;23;20282;-73
2022/01/31 04:15:46;;;;;;;;;;;;;;;6.55;62.75;100908.38;6244053;23;20273;-74
2022/01/31 04:18:11;;;;;;;;;;;;;;;6.56;62.91;100916.31;6242172;23;20318;-75
2022/01/31 04:20:37;;;;;;;;;;;;;;;6.56;61.76;100927.19;6244509;23;19912;-75
2022/01/31 04:23:09;;;;;;;;;;;;;;;6.56;62.42;100931.78;6246003;23;19907;-77
2022/01/31 04:25:54;;;;;;;;;;;;;;;6.57;62.47;100944.31;6247128;23;19914;-77
2022/01/31 04:28:32;;;;;;;;;;;;;;;6.53;62.11;100937.69;6236939;23;19908;-78
2022/01/31 04:31:12;;;;;;;;;;;;;;;6.56;61.64;100940.75;6233041;23;19923;-76
2022/01/31 04:33:38;;;;;;;;;;;;;;;6.59;62.09;100936.78;6243351;23;19919;-76
2022/01/31 04:36:04;;;;;;;;;;;;;;;6.55;61.61;100941.00;6244409;23;19903;-75
2022/01/31 04:38:30;;;;;;;;;;;;;;;6.57;61.98;100933.44;6216814;23;19910;-76
2022/01/31 04:40:55;;;;;;;;;;;;;;;6.53;61.75;100933.06;6218881;23;19915;-77
2022/01/31 04:43:20;;;;;;;;;;;;;;;6.51;62.19;100940.59;6218788;23;19904;-76
2022/01/31 04:45:51;;;;;;;;;;;;;;;6.46;61.86;100937.75;6245270;23;19912;-77
2022/01/31 04:48:17;;;;;;;;;;;;;;;6.44;61.29;100940.69;6243789;23;19911;-78
2022/01/31 04:50:43;;;;;;;;;;;;;;;6.46;62.19;100954.88;6193725;23;19943;-76
2022/01/31 04:53:08;;;;;;;;;;;;;;;6.44;62.09;100943.41;6244880;22;19965;-77
2022/01/31 04:55:35;;;;;;;;;;;;;;;6.39;62.25;100948.69;6218151;23;19904;-77
2022/01/31 04:58:00;;;;;;;;;;;;;;;6.43;61.80;100971.63;6244854;23;19911;-76
2022/01/31 05:00:26;;;;;;;;;;;;;;;6.46;62.06;100976.59;6217037;23;19968;-74
2022/01/31 05:02:51;;;;;;;;;;;;;;;6.49;62.13;100985.38;6243672;23;20033;-75
2022/01/31 05:05:16;;;;;;;;;;;;;;;6.49;61.22;100998.97;6216494;23;19907;-75
2022/01/31 05:07:42;;;;;;;;;;;;;;;6.50;61.48;101003.31;6244139;23;19953;-75
2022/01/31 05:10:07;;;;;;;;;;;;;;;6.46;61.77;100984.75;6215876;23;19916;-75
2022/01/31 05:12:33;;;;;;;;;;;;;;;6.45;61.12;100990.41;6242893;23;19907;-74
2022/01/31 05:14:58;;;;;;;;;;;;;;;6.43;61.90;100987.09;6216051;23;19915;-75
2022/01/31 05:17:23;;;;;;;;;;;;;;;6.39;61.58;100992.16;6213446;23;20321;-74
2022/01/31 05:19:49;;;;;;;;;;;;;;;6.38;61.61;100995.09;6216104;23;20331;-73
2022/01/31 05:22:14;;;;;;;;;;;;;;;6.38;61.03;101017.66;6216241;23;20310;-75
2022/01/31 05:24:39;;;;;;;;;;;;;;;6.34;61.81;101011.00;6214345;23;19913;-75
2022/01/31 05:27:05;;;;;;;;;;;;;;;6.27;61.35;101015.69;6243606;23;19908;-75
2022/01/31 05:29:30;;;;;;;;;;;;;;;6.30;61.89;101015.22;6217321;23;19918;-75
2022/01/31 05:31:55;;;;;;;;;;;;;;;6.32;61.45;101006.84;6216152;23;19915;-75
2022/01/31 05:34:23;;;;;;;;;;;;;;;6.26;61.56;101004.00;6193148;23;20238;-76
2022/01/31 05:36:51;;;;;;;;;;;;;;;6.27;60.73;101004.81;6217875;23;19907;-75
2022/01/31 05:39:16;;;;;;;;;;;;;;;6.24;60.38;101005.25;6231156;23;19943;-75
2022/01/31 05:41:42;;;;;;;;;;;;;;;6.23;60.73;100992.72;6237066;23;19907;-73
2022/01/31 05:44:07;;;;;;;;;;;;;;;6.27;61.05;100980.38;6208768;23;19922;-73
2022/01/31 05:46:32;;;;;;;;;;;;;;;6.31;61.02;100984.31;6230480;23;20270;-75
2022/01/31 05:48:58;;;;;;;;;;;;;;;6.22;60.43;100985.63;6232854;23;19912;-75
2022/01/31 05:51:30;;;;;;;;;;;;;;;6.22;59.95;100996.50;6263790;23;19911;-75
2022/01/31 05:53:56;;;;;;;;;;;;;;;6.25;60.71;100996.03;6221663;22;19911;-77
2022/01/31 05:56:22;;;;;;;;;;;;;;;6.23;59.63;100998.97;6244871;23;19927;-75
2022/01/31 05:58:49;;;;;;;;;;;;;;;6.20;59.60;100991.28;6218935;23;19914;-76
2022/01/31 06:01:15;;;;;;;;;;;;;;;6.21;59.54;100995.66;6243777;23;19922;-75
2022/01/31 06:03:40;;;;;;;;;;;;;;;6.21;59.43;100984.81;6244615;23;19946;-76
2022/01/31 06:06:08;;;;;;;;;;;;;;;6.23;59.55;100992.72;6216139;23;19903;-77
2022/01/31 06:08:34;;;;;;;;;;;;;;;6.21;59.70;101000.28;6217202;23;19915;-75
2022/01/31 06:10:59;;;;;;;;;;;;;;;6.18;60.21;101000.72;6243101;23;19918;-77
2022/01/31 06:13:32;;;;;;;;;;;;;;;6.26;60.56;101012.13;6242299;23;19907;-76
2022/01/31 06:15:57;;;;;;;;;;;;;;;6.33;59.98;101025.66;6220555;23;19907;-77
2022/01/31 06:18:25;;;;;;;;;;;;;;;6.37;59.50;101034.19;6246349;23;19910;-76
2022/01/31 06:20:53;;;;;;;;;;;;;;;6.36;60.14;101025.19;6221655;23;19918;-76
2022/01/31 06:23:18;;;;;;;;;;;;;;;6.29;60.15;101029.84;6231946;23;19899;-76
2022/01/31 06:25:45;;;;;;;;;;;;;;;6.24;59.41;101021.56;6230835;23;19915;-77
2022/01/31 06:28:10;;;;;;;;;;;;;;;6.27;59.56;101048.28;6233838;23;20724;-77
2022/01/31 06:30:36;;;;;;;;;;;;;;;6.22;60.35;101029.06;6221052;23;19908;-76
2022/01/31 06:33:16;;;;;;;;;;;;;;;6.23;60.23;101037.00;6217821;23;19911;-78
2022/01/31 06:35:45;;;;;;;;;;;;;;;6.23;60.69;101047.03;6222162;23;20294;-77
2022/01/31 06:38:21;;;;;;;;;;;;;;;6.18;60.64;101050.44;6245864;23;19910;-79
2022/01/31 06:40:46;;;;;;;;;;;;;;;6.13;60.00;101073.88;6221172;23;20295;-78
2022/01/31 06:43:28;;;;;;;;;;;;;;;6.13;60.16;101079.31;6220286;23;19957;-79
2022/01/31 06:45:53;;;;;;;;;;;;;;;6.16;60.46;101073.44;6226303;23;19926;-80
2022/01/31 06:48:19;;;;;;;;;;;;;;;6.21;61.38;101076.31;6228902;23;19903;-78
2022/01/31 06:50:47;;;;;;;;;;;;;;;6.25;60.31;101061.22;6230730;23;19907;-78
2022/01/31 06:53:13;;;;;;;;;;;;;;;6.27;60.78;101059.13;6257248;22;19919;-77
2022/01/31 06:55:41;;;;;;;;;;;;;;;6.28;60.96;101071.69;6232647;23;19903;-79
2022/01/31 06:58:08;;;;;;;;;;;;;;;6.29;60.66;101073.31;6233911;23;19912;-78
2022/01/31 07:00:36;;;;;;;;;;;;;;;6.28;61.59;101066.25;6226232;23;19911;-76
2022/01/31 07:03:04;;;;;;;;;;;;;;;6.30;61.52;101058.69;6220508;23;19907;-76
2022/01/31 07:05:33;;;;;;;;;;;;;;;6.31;61.23;101067.66;6220158;23;19930;-74
2022/01/31 07:07:58;;;;;;;;;;;;;;;6.35;61.13;101072.44;6219777;23;19907;-76
2022/01/31 07:10:23;;;;;;;;;;;;;;;6.36;61.11;101068.66;6245898;23;19911;-74
2022/01/31 07:12:53;;;;;;;;;;;;;;;6.41;61.34;101059.84;6225119;23;20386;-75
2022/01/31 07:15:19;;;;;;;;;;;;;;;6.46;61.28;101068.97;6219669;23;19915;-77
2022/01/31 07:17:47;;;;;;;;;;;;;;;6.51;60.28;101070.22;6219774;23;19903;-78
2022/01/31 07:20:39;;;;;;;;;;;;;;;6.61;61.07;101073.25;6248120;23;19903;-77
2022/01/31 07:23:10;;;;;;;;;;;;;;;6.67;60.80;101079.69;6221126;23;19926;-77
2022/01/31 07:25:38;;;;;;;;;;;;;;;6.72;60.74;101096.97;6220687;23;19903;-77
2022/01/31 07:28:18;;;;;;;;;;;;;;;;;;;;;
2022/01/31 07:30:53;;;;;;;;;;;;;;;6.83;60.25;101117.16;6247030;23;19983;-75
2022/01/31 07:33:28;;;;;;;;;;;;;;;;;;;;;
2022/01/31 07:35:57;;;;;;;;;;;;;;;6.85;59.19;101119.63;6254804;23;19972;-78
2022/01/31 07:38:25;;;;;;;;;;;;;;;6.79;60.33;101105.91;6258619;23;19954;-78
2022/01/31 07:40:57;;;;;;;;;;;;;;;6.68;59.95;101103.91;6233141;23;19908;-77
2022/01/31 07:43:23;;;;;;;;;;;;;;;6.60;60.36;101134.06;6196718;23;20336;-78
2022/01/31 07:45:48;;;;;;;;;;;;;;;6.46;59.71;101144.25;6246992;23;19982;-76
2022/01/31 07:48:25;;;;;;;;;;;;;;;6.37;60.82;101149.13;6217559;23;19926;-72
2022/01/31 07:50:54;;;;;;;;;;;;;;;6.34;60.69;101149.56;6216132;23;19943;-75
2022/01/31 07:53:19;;;;;;;;;;;;;;;6.31;60.04;101154.59;6219020;23;20315;-77
2022/01/31 07:55:45;;;;;;;;;;;;;;;6.29;60.21;101160.22;6219338;23;19904;-76
2022/01/31 07:58:20;;;;;;;;;;;;;;;6.28;60.71;101159.41;6245186;23;20358;-77
2022/01/31 08:01:05;;;;;;;;;;;;;;;6.34;61.56;101146.00;6243098;23;19914;-78
2022/01/31 08:03:31;;;;;;;;;;;;;;;6.40;60.38;101156.81;6242553;23;19915;-79
2022/01/31 08:06:04;;;;;;;;;;;;;;;6.46;60.87;101160.53;6218301;23;20231;-78
2022/01/31 08:08:40;;;;;;;;;;;;;;;;;;;;;
2022/01/31 08:11:08;;;;;;;;;;;;;;;6.68;60.24;101174.59;6245986;23;19991;-77
2022/01/31 08:13:36;;;;;;;;;;;;;;;6.79;60.96;101171.16;6215898;23;19995;-76
2022/01/31 08:16:12;;;;;;;;;;;;;;;6.91;60.74;101178.59;6243928;23;19907;-78
2022/01/31 08:18:39;;;;;;;;;;;;;;;7.05;59.29;101190.97;6220530;23;19918;-77
2022/01/31 08:21:05;;;;;;;;;;;;;;;7.16;59.98;101203.84;6220889;23;19934;-74
2022/01/31 08:23:36;;;;;;;;;;;;;;;7.20;59.05;101214.28;6244110;23;19947;-78
2022/01/31 08:26:16;;;;;;;;;;;;;;;;;;;;;
2022/01/31 08:28:52;;;;;;;;;;;;;;;7.23;59.52;101219.25;6243908;23;19979;-76
2022/01/31 08:31:28;;;;;;;;;;;;;;;7.27;58.81;101231.38;6218317;23;20281;-77
2022/01/31 08:36:35;;;;;;;;;;;;;;;;;;;;;
2022/01/31 08:39:08;;;;;;;;;;;;;;;7.37;58.90;101242.56;6244799;23;19987;-73
2022/01/31 08:41:37;;;;;;;;;;;;;;;7.45;58.52;101250.44;6244444;23;19935;-74
2022/01/31 08:44:03;;;;;;;;;;;;;;;7.57;58.21;101238.81;6243945;23;20597;-73
2022/01/31 08:46:28;;;;;;;;;;;;;;;7.64;57.59;101242.31;6211053;23;19982;-74
2022/01/31 08:48:55;;;;;;;;;;;;;;;7.64;57.78;101234.16;6190280;23;20238;-73
2022/01/31 08:51:20;;;;;;;;;;;;;;;7.62;57.93;101233.53;6240479;23;19915;-73
2022/01/31 08:54:23;;;;;;;;;;;;;;;7.57;58.01;101236.09;6216449;23;19912;-75
2022/01/31 08:56:50;;;;;;;;;;;;;;;7.41;57.93;101226.63;6218072;23;20348;-75
2022/01/31 08:59:36;;;;;;;;;;;;;;;7.43;57.92;101232.69;6218506;23;19914;-75
2022/01/31 09:02:06;;;;;;;;;;;;;;;7.42;58.78;101239.19;6216881;23;19934;-74
2022/01/31 09:04:34;;;;;;;;;;;;;;;7.43;58.78;101249.84;6215634;23;19912;-73
2022/01/31 09:07:03;;;;;;;;;;;;;;;7.56;58.63;101257.03;6213155;23;19954;-75
2022/01/31 09:09:30;;;;;;;;;;;;;;;7.73;58.42;101262.72;6219166;23;19903;-73
2022/01/31 09:11:58;;;;;;;;;;;;;;;7.83;58.27;101263.03;6212067;23;19903;-76
2022/01/31 09:14:25;;;;;;;;;;;;;;;8.07;58.18;101252.25;6212185;23;20426;-75
2022/01/31 09:16:50;;;;;;;;;;;;;;;8.69;58.05;101245.78;6218865;23;19911;-75
2022/01/31 09:19:15;;;;;;;;;;;;;;;9.45;54.15;101251.44;6243208;23;19973;-75
2022/01/31 09:21:41;;;;;;;;;;;;;;;10.11;52.38;101259.38;6192759;23;19907;-75
2022/01/31 09:24:06;;;;;;;;;;;;;;;10.84;52.89;101267.88;6244903;23;19907;-74
2022/01/31 09:26:34;;;;;;;;;;;;;;;11.48;49.73;101278.47;6243356;23;19907;-74
2022/01/31 09:29:02;;;;;;;;;;;;;;;11.65;47.98;101278.47;6245691;23;20029;-76
2022/01/31 09:31:37;;;;;;;;;;;;;;;11.44;47.60;101287.47;6245513;23;19911;-75
2022/01/31 09:34:02;;;;;;;;;;;;;;;11.08;47.55;101279.53;6245254;23;19908;-75
2022/01/31 09:36:28;;;;;;;;;;;;;;;10.73;47.95;101283.31;6244777;23;19930;-74
2022/01/31 09:38:53;;;;;;;;;;;;;;;10.54;49.05;101307.28;6245377;23;19930;-75
2022/01/31 09:41:22;;;;;;;;;;;;;;;10.31;48.96;101314.47;6245620;23;19903;-75
2022/01/31 09:44:02;;;;;;;;;;;;;;;10.17;49.70;101323.19;6244921;23;19907;-74
2022/01/31 09:48:56;;;;;;;;;;;;;;;9.85;50.11;101332.59;6273736;23;19974;-73
2022/01/31 09:51:22;;;;;;;;;;;;;;;9.78;50.76;101340.09;6237274;23;19931;-74
2022/01/31 09:53:48;;;;;;;;;;;;;;;9.67;50.49;101347.22;6223620;23;19926;-74
2022/01/31 09:56:15;;;;;;;;;;;;;;;9.53;50.71;101346.63;6246428;23;20278;-73
2022/01/31 09:58:41;;;;;;;;;;;;;;;9.43;51.36;101343.63;6219958;23;19903;-73
2022/01/31 10:01:14;;;;;;;;;;;;;;;9.45;51.54;101341.53;6218522;23;19911;-74
2022/01/31 10:03:55;;;;;;;;;;;;;;;9.44;51.59;101348.88;6244919;23;19907;-73
2022/01/31 10:06:25;;;;;;;;;;;;;;;9.49;51.21;101345.44;6216152;23;19945;-75
2022/01/31 10:09:06;;;;;;;;;;;;;;;9.58;51.38;101359.59;6215157;23;19927;-72
2022/01/31 10:11:46;;;;;;;;;;;;;;;9.56;51.34;101365.28;6242182;23;19904;-72
2022/01/31 10:17:26;;;;;;;;;;;;;;;10.25;51.71;101356.44;6239837;23;20737;-72
2022/01/31 10:19:53;;;;;;;;;;;;;;;11.13;49.68;101342.53;6215191;23;20283;-71
2022/01/31 10:22:19;;;;;;;;;;;;;;;11.15;47.42;101358.72;6212878;23;20266;-74
2022/01/31 10:24:45;;;;;;;;;;;;;;;11.00;47.93;101357.38;6214803;23;19911;-77
2022/01/31 10:27:23;;;;;;;;;;;;;;;10.99;49.06;101355.72;6244385;23;19914;-78
2022/01/31 10:30:07;;;;;;;;;;;;;;;11.38;49.18;101365.16;6242978;23;19915;-74
2022/01/31 10:32:36;;;;;;;;;;;;;;;11.62;48.06;101357.56;6242738;23;20353;-74
2022/01/31 10:35:03;;;;;;;;;;;;;;;11.77;47.16;101346.84;6204876;23;19912;-75
2022/01/31 10:37:30;;;;;;;;;;;;;;;11.74;46.23;101346.50;6222270;23;19904;-75
2022/01/31 10:45:39;;;;;;;;;;;;;;;10.98;45.33;101375.97;6254661;23;19942;-73
2022/01/31 10:53:24;;;;;;;;;;;;;;;10.68;45.88;101406.28;6250134;22;19919;-75
2022/01/31 10:55:53;;;;;;;;;;;;;;;10.73;45.33;101419.22;6244012;23;20332;-74
2022/01/31 10:58:19;;;;;;;;;;;;;;;10.68;44.66;101416.41;6215694;23;19907;-73
2022/01/31 11:00:44;;;;;;;;;;;;;;;10.62;45.16;101410.00;6212825;23;20269;-71
2022/01/31 11:03:29;;;;;;;;;;;;;;;10.56;45.47;101414.53;6216421;23;19911;-72
2022/01/31 11:05:55;;;;;;;;;;;;;;;10.71;45.38;101435.06;6215124;23;19946;-72
2022/01/31 11:08:20;;;;;;;;;;;;;;;10.74;44.67;101432.66;6241872;23;19912;-72
2022/01/31 11:10:46;;;;;;;;;;;;;;;10.87;44.85;101426.09;6214143;23;19907;-74
2022/01/31 11:13:12;;;;;;;;;;;;;;;11.15;44.56;101424.44;6215896;23;20315;-73
2022/01/31 11:15:37;;;;;;;;;;;;;;;11.38;43.87;101448.13;6242274;22;19919;-72
2022/01/31 11:18:06;;;;;;;;;;;;;;;11.50;44.68;101434.34;6217708;23;20214;-73
2022/01/31 11:20:31;;;;;;;;;;;;;;;11.49;44.31;101449.97;6217198;23;20029;-72
2022/01/31 11:22:58;;;;;;;;;;;;;;;11.43;44.15;101453.66;6216383;23;20000;-73
2022/01/31 11:25:26;;;;;;;;;;;;;;;11.36;44.91;101472.19;6217867;23;19918;-73
2022/01/31 11:27:53;;;;;;;;;;;;;;;11.29;45.25;101477.81;6215558;23;19954;-74
2022/01/31 11:30:18;;;;;;;;;;;;;;;11.18;45.05;101481.41;6243785;23;19930;-74
2022/01/31 11:32:45;;;;;;;;;;;;;;;10.99;45.43;101487.09;6243108;23;19904;-73
2022/01/31 11:35:12;;;;;;;;;;;;;;;10.77;46.29;101480.59;6219406;23;19903;-78
2022/01/31 11:37:38;;;;;;;;;;;;;;;10.63;46.69;101486.34;6223014;23;19927;-76
2022/01/31 11:40:06;;;;;;;;;;;;;;;10.55;47.95;101475.75;6222220;23;20300;-74
2022/01/31 11:42:33;;;;;;;;;;;;;;;10.59;48.69;101482.44;6244947;23;19910;-76
2022/01/31 11:45:17;;;;;;;;;;;;;;;10.67;48.55;101491.34;6220346;23;19911;-75
2022/01/31 11:47:50;;;;;;;;;;;;;;;10.70;49.15;101480.72;6246655;23;19934;-75
2022/01/31 11:50:18;;;;;;;;;;;;;;;10.80;48.92;101482.84;6245101;23;19935;-75
2022/01/31 11:52:46;;;;;;;;;;;;;;;10.86;49.11;101484.63;6245864;22;20222;-76
2022/01/31 11:55:13;;;;;;;;;;;;;;;10.84;48.79;101486.78;6246404;23;20265;-76
2022/01/31 11:57:39;;;;;;;;;;;;;;;10.78;49.46;101487.75;6219270;23;19978;-77
2022/01/31 12:00:09;;;;;;;;;;;;;;;10.73;49.63;101474.81;6243951;23;19938;-75
2022/01/31 12:02:48;;;;;;;;;;;;;;;10.87;50.29;101490.94;6244605;23;19904;-75
2022/01/31 12:05:16;;;;;;;;;;;;;;;12.02;49.69;101494.44;6252128;23;19914;-75
2022/01/31 12:08:00;;;;;;;;;;;;;;;12.66;47.22;101490.44;6222926;23;20220;-75
2022/01/31 12:10:31;;;;;;;;;;;;;;;12.95;46.10;101498.47;6249810;23;20271;-78
2022/01/31 12:15:44;;;;;;;;;;;;;;;12.94;45.41;101507.81;6246152;23;19903;-78
2022/01/31 12:19:28;;;;;;;;;;;;;;;12.96;45.57;101510.31;6220147;23;19931;-80
2022/01/31 12:24:05;;;;;;;;;;;;;;;13.99;43.62;101514.13;6246258;23;19914;-75
2022/01/31 12:26:34;;;;;;;;;;;;;;;13.88;43.20;101522.28;6219384;23;20310;-77
2022/01/31 12:29:02;;;;;;;;;;;;;;;13.51;43.24;101531.28;6246366;23;19930;-76
2022/01/31 12:31:31;;;;;;;;;;;;;;;13.12;42.92;101539.59;6217727;23;19907;-75
2022/01/31 12:33:59;;;;;;;;;;;;;;;12.71;44.01;101525.34;6244170;23;19904;-75
2022/01/31 12:36:50;;;;;;;;;;;;;;;12.45;44.77;101514.00;6217871;23;19910;-75
2022/01/31 12:39:31;;;;;;;;;;;;;;;12.42;44.51;101511.78;6218101;23;19931;-77
2022/01/31 12:42:02;;;;;;;;;;;;;;;12.43;44.54;101526.34;6218190;23;19979;-76
2022/01/31 12:44:38;;;;;;;;;;;;;;;12.24;44.01;101529.34;6216319;23;19915;-74
2022/01/31 12:47:17;;;;;;;;;;;;;;;;;;;;;
2022/01/31 12:50:06;;;;;;;;;;;;;;;12.01;45.53;101527.59;6243409;23;19986;-75
2022/01/31 12:52:37;;;;;;;;;;;;;;;11.99;45.86;101530.59;6200839;23;19934;-75
2022/01/31 12:55:12;;;;;;;;;;;;;;;11.99;46.05;101511.41;6214706;23;19930;-75
2022/01/31 12:57:50;;;;;;;;;;;;;;;12.09;45.67;101512.63;6247932;23;19915;-76
2022/01/31 13:00:30;;;;;;;;;;;;;;;12.22;46.09;101512.28;6251125;23;19947;-76
2022/01/31 13:02:55;;;;;;;;;;;;;;;12.20;45.04;101519.94;6252310;23;19907;-78
2022/01/31 13:05:39;;;;;;;;;;;;;;;12.10;44.98;101520.59;6243754;23;19915;-74
2022/01/31 13:08:20;;;;;;;;;;;;;;;11.98;45.40;101525.34;6244669;23;19910;-75
2022/01/31 13:10:45;;;;;;;;;;;;;;;11.81;45.99;101528.03;6217087;23;20379;-74
2022/01/31 13:13:15;;;;;;;;;;;;;;;11.58;45.73;101524.38;6245177;23;19910;-75
2022/01/31 13:15:41;;;;;;;;;;;;;;;11.38;46.47;101534.94;6244229;23;19942;-75
2022/01/31 13:18:08;;;;;;;;;;;;;;;11.20;46.44;101527.72;6218561;23;19911;-75
2022/01/31 13:20:44;;;;;;;;;;;;;;;;;;;;;
2022/01/31 13:23:10;;;;;;;;;;;;;;;10.88;46.98;101548.16;6245947;23;20279;-78
2022/01/31 13:25:35;;;;;;;;;;;;;;;10.75;47.22;101540.22;6244984;23;19935;-77